Sintaluta, Canada
Current Conditions -  °F | °C
As of 3:00 AM on Saturday 20 Dec 2014 (Local Time) from CYQR Reporting Station
Moderate Fog Moderate Fog  
Wind Chill:   Ceiling: 200
Heat Index: 18°   Visibility: 0.37mi
Dew Point: 16°   Wind: 15mph
Humidity: 93%   Direction: 130°SE
Pressure: 29.83"   Gusts: NA
Location:  50.48°N, 103.43°W
Report Text: CYQR 200900Z 13013KT 3/8SM R13/3500FT/N FZFG VV002 M08/M09 A2983 RMK FG8 FROIN SLP140
Loading
Personal Weather Stations






























Interactive Weather Map New forecast layout! Learn more

10-Day Weather Forecast

Advertisements
Track Severe Weather on mobile